createdAt,value
2017-11-08T00:00:56.096Z,0
2017-11-08T00:01:57.776Z,0
2017-11-08T00:02:59.576Z,0
2017-11-08T00:04:01.112Z,0
2017-11-08T00:05:02.594Z,0
2017-11-08T00:06:04.269Z,0
2017-11-08T00:07:05.890Z,0
2017-11-08T00:08:07.945Z,0
2017-11-08T00:09:09.897Z,0
2017-11-08T00:10:12.010Z,0
2017-11-08T00:11:13.864Z,0
2017-11-08T00:12:15.526Z,0
2017-11-08T00:13:17.380Z,0
2017-11-08T00:14:19.065Z,0
2017-11-08T00:15:20.840Z,0
2017-11-08T00:16:22.618Z,0
2017-11-08T00:17:24.113Z,0
2017-11-08T00:18:25.766Z,0
2017-11-08T00:19:27.572Z,0
2017-11-08T00:20:29.687Z,0
2017-11-08T00:21:31.162Z,0
2017-11-08T00:22:33.069Z,0
2017-11-08T00:23:34.542Z,0
2017-11-08T00:24:36.337Z,0
2017-11-08T00:25:37.877Z,0
2017-11-08T00:26:39.575Z,0
2017-11-08T00:27:41.265Z,0
2017-11-08T00:28:42.942Z,0
2017-11-08T00:29:44.722Z,0
2017-11-08T00:30:46.579Z,0
2017-11-08T00:31:48.325Z,0
2017-11-08T00:32:50.040Z,0
2017-11-08T00:33:51.832Z,0
2017-11-08T00:34:53.802Z,0
2017-11-08T00:35:56.035Z,0
2017-11-08T00:36:57.686Z,0
2017-11-08T00:37:59.481Z,0
2017-11-08T00:39:01.644Z,0
2017-11-08T00:40:03.480Z,0
2017-11-08T00:41:05.167Z,0
2017-11-08T00:42:06.867Z,0
2017-11-08T00:43:08.480Z,0
2017-11-08T00:44:10.311Z,0
2017-11-08T00:45:12.221Z,0
2017-11-08T00:46:14.324Z,0
2017-11-08T00:47:16.218Z,0
2017-11-08T00:48:17.715Z,0
2017-11-08T00:49:19.152Z,0
2017-11-08T00:50:20.667Z,0
2017-11-08T00:51:22.127Z,0
2017-11-08T00:52:24.268Z,0
2017-11-08T00:53:25.805Z,0
2017-11-08T00:54:27.456Z,0
2017-11-08T00:55:29.490Z,0
2017-11-08T00:56:31.396Z,0
2017-11-08T00:57:32.903Z,0
2017-11-08T00:58:34.586Z,0
2017-11-08T00:59:36.758Z,0
2017-11-08T01:00:38.819Z,0
2017-11-08T01:01:40.583Z,0
2017-11-08T01:02:42.473Z,0
2017-11-08T01:03:44.117Z,0
2017-11-08T01:04:45.949Z,0
2017-11-08T01:05:47.472Z,0
2017-11-08T01:06:49.125Z,0
2017-11-08T01:07:51.018Z,0
2017-11-08T01:08:53.116Z,0
2017-11-08T01:09:54.811Z,0
2017-11-08T01:10:56.975Z,0
2017-11-08T01:11:58.617Z,0
2017-11-08T01:13:00.476Z,0
2017-11-08T01:14:02.142Z,0
2017-11-08T01:15:03.720Z,0
2017-11-08T01:16:05.814Z,0
2017-11-08T01:17:07.393Z,0
2017-11-08T01:18:09.001Z,0
2017-11-08T01:19:11.087Z,0
2017-11-08T01:20:13.073Z,0
2017-11-08T01:21:14.553Z,0
2017-11-08T01:22:16.015Z,0
2017-11-08T01:23:17.991Z,0
2017-11-08T01:24:19.626Z,0
2017-11-08T01:25:21.201Z,0
2017-11-08T01:26:23.106Z,0
2017-11-08T01:27:24.584Z,0
2017-11-08T01:28:26.163Z,0
2017-11-08T01:29:27.828Z,0
2017-11-08T01:30:29.617Z,0
2017-11-08T01:31:31.519Z,0
2017-11-08T01:32:33.450Z,0
2017-11-08T01:33:35.107Z,0
2017-11-08T01:34:36.845Z,0
2017-11-08T01:35:38.490Z,0
2017-11-08T01:36:40.140Z,0
2017-11-08T01:37:41.968Z,0
2017-11-08T01:38:44.087Z,0
2017-11-08T01:39:46.091Z,0
2017-11-08T01:40:47.515Z,0
2017-11-08T01:41:48.961Z,0
2017-11-08T01:42:51.117Z,0
2017-11-08T01:43:52.970Z,0
2017-11-08T01:44:54.582Z,0
2017-11-08T01:45:56.278Z,0
2017-11-08T01:46:57.804Z,0
2017-11-08T01:47:59.477Z,0
2017-11-08T01:49:01.376Z,0
2017-11-08T01:50:03.209Z,0
2017-11-08T01:51:04.720Z,0
2017-11-08T01:52:06.694Z,0
2017-11-08T01:53:08.838Z,0
2017-11-08T01:54:10.630Z,0
2017-11-08T01:55:12.448Z,0
2017-11-08T01:56:14.118Z,0
2017-11-08T01:57:15.808Z,0
2017-11-08T01:58:17.496Z,0
2017-11-08T01:59:19.052Z,0
2017-11-08T02:00:20.736Z,0
2017-11-08T02:01:22.184Z,0
2017-11-08T02:02:23.872Z,0
2017-11-08T02:03:25.831Z,0
2017-11-08T02:04:27.696Z,0
2017-11-08T02:05:29.392Z,0
2017-11-08T02:06:30.892Z,0
2017-11-08T02:07:32.773Z,0
2017-11-08T02:08:34.651Z,0
2017-11-08T02:09:36.132Z,0
2017-11-08T02:10:37.966Z,0
2017-11-08T02:11:39.447Z,0
2017-11-08T02:12:41.652Z,0
2017-11-08T02:13:43.314Z,0
2017-11-08T02:14:44.997Z,0
2017-11-08T02:15:46.797Z,0
2017-11-08T02:16:49.013Z,0
2017-11-08T02:17:50.898Z,0
2017-11-08T02:18:52.612Z,0
2017-11-08T02:19:54.090Z,0
2017-11-08T02:20:55.922Z,0
2017-11-08T02:21:57.817Z,0
2017-11-08T02:22:59.665Z,0
2017-11-08T02:24:01.528Z,0
2017-11-08T02:25:03.551Z,0
2017-11-08T02:26:05.323Z,0
2017-11-08T02:27:07.055Z,0
2017-11-08T02:28:08.698Z,0
2017-11-08T02:29:10.350Z,0
2017-11-08T02:30:12.129Z,0
2017-11-08T02:31:14.129Z,0
2017-11-08T02:32:15.727Z,0
2017-11-08T02:33:17.593Z,0
2017-11-08T02:34:19.486Z,0
2017-11-08T02:35:21.124Z,0
2017-11-08T02:36:22.867Z,0
2017-11-08T02:37:24.517Z,0
2017-11-08T02:38:26.585Z,0
2017-11-08T02:39:28.708Z,0
2017-11-08T02:40:30.080Z,0
2017-11-08T02:41:31.601Z,0
2017-11-08T02:42:33.268Z,0
2017-11-08T02:43:34.878Z,0
2017-11-08T02:44:37.081Z,0
2017-11-08T02:45:38.800Z,0
2017-11-08T02:46:40.435Z,0
2017-11-08T02:47:42.084Z,0
2017-11-08T02:48:44.090Z,0
2017-11-08T02:49:45.665Z,0
2017-11-08T02:50:47.846Z,0
2017-11-08T02:51:49.664Z,0
2017-11-08T02:52:51.767Z,0
2017-11-08T02:53:53.551Z,0
2017-11-08T02:54:55.218Z,0
2017-11-08T02:55:56.946Z,0
2017-11-08T02:56:58.802Z,0
2017-11-08T02:58:00.460Z,0
2017-11-08T02:59:02.346Z,0
2017-11-08T03:00:03.961Z,0
2017-11-08T03:01:05.763Z,0
2017-11-08T03:02:07.569Z,0
2017-11-08T03:03:09.527Z,0
2017-11-08T03:04:11.172Z,0
2017-11-08T03:05:12.894Z,0
2017-11-08T03:06:15.020Z,0
2017-11-08T03:07:16.526Z,0
2017-11-08T03:08:18.126Z,0
2017-11-08T03:09:19.833Z,0
2017-11-08T03:10:21.464Z,0
2017-11-08T03:11:23.240Z,0
2017-11-08T03:12:24.857Z,0
2017-11-08T03:13:27.023Z,0
2017-11-08T03:14:28.686Z,0
2017-11-08T03:15:30.770Z,0
2017-11-08T03:16:32.485Z,0
2017-11-08T03:17:34.435Z,0
2017-11-08T03:18:36.155Z,0
2017-11-08T03:19:38.025Z,0
2017-11-08T03:20:39.549Z,0
2017-11-08T03:21:41.338Z,0
2017-11-08T03:22:42.941Z,0
2017-11-08T03:23:44.449Z,0
2017-11-08T03:24:46.128Z,0
2017-11-08T03:25:47.662Z,0
2017-11-08T03:26:49.186Z,0
2017-11-08T03:27:51.042Z,0
2017-11-08T03:28:52.928Z,0
2017-11-08T03:29:54.568Z,0
2017-11-08T03:30:56.609Z,0
2017-11-08T03:31:58.350Z,0
2017-11-08T03:33:00.180Z,0
2017-11-08T03:34:02.288Z,0
2017-11-08T03:35:03.923Z,0
2017-11-08T03:36:05.760Z,0
2017-11-08T03:37:07.576Z,0
2017-11-08T03:38:09.542Z,0
2017-11-08T03:39:11.660Z,0
2017-11-08T03:40:13.339Z,0
2017-11-08T03:41:14.902Z,0
2017-11-08T03:42:17.012Z,0
2017-11-08T03:43:18.721Z,0
2017-11-08T03:44:20.479Z,0
2017-11-08T03:45:21.959Z,0
2017-11-08T03:46:23.771Z,0
2017-11-08T03:47:25.849Z,0
2017-11-08T03:48:27.900Z,0
2017-11-08T03:49:29.897Z,0
2017-11-08T03:50:31.762Z,0
2017-11-08T03:51:33.429Z,0
2017-11-08T03:52:34.961Z,0
2017-11-08T03:53:36.689Z,0
2017-11-08T03:54:38.664Z,0
2017-11-08T03:55:40.620Z,0
2017-11-08T03:56:42.615Z,0
2017-11-08T03:57:44.472Z,0
2017-11-08T03:58:45.974Z,0
2017-11-08T03:59:48.077Z,0
2017-11-08T04:00:49.837Z,0
2017-11-08T04:01:51.407Z,0
2017-11-08T04:02:53.556Z,0
2017-11-08T04:03:55.637Z,0
2017-11-08T04:04:57.316Z,0
2017-11-08T04:05:59.009Z,0
2017-11-08T04:07:00.637Z,0
2017-11-08T04:08:02.590Z,0
2017-11-08T04:09:05.195Z,0
2017-11-08T04:10:07.045Z,0
2017-11-08T04:11:08.837Z,0
2017-11-08T04:12:10.853Z,0
2017-11-08T04:13:12.490Z,0
2017-11-08T04:14:14.151Z,0
2017-11-08T04:15:15.996Z,0
2017-11-08T04:16:17.865Z,0
2017-11-08T04:17:19.646Z,0
2017-11-08T04:18:21.132Z,0
2017-11-08T04:19:22.816Z,0
2017-11-08T04:20:24.301Z,0
2017-11-08T04:21:25.887Z,0
2017-11-08T04:22:27.872Z,0
2017-11-08T04:23:29.832Z,0
2017-11-08T04:24:31.590Z,0
2017-11-08T04:25:33.356Z,0
2017-11-08T04:26:35.014Z,0
2017-11-08T04:27:36.846Z,0
2017-11-08T04:28:38.593Z,0
2017-11-08T04:29:40.414Z,0
2017-11-08T04:30:42.316Z,0
2017-11-08T04:31:44.015Z,0
2017-11-08T04:32:45.442Z,0
2017-11-08T04:33:47.155Z,0
2017-11-08T04:34:48.844Z,0
2017-11-08T04:35:50.962Z,0
2017-11-08T04:36:52.625Z,0
2017-11-08T04:37:54.485Z,0
2017-11-08T04:38:56.455Z,0
2017-11-08T04:39:58.144Z,0
2017-11-08T04:40:59.983Z,0
2017-11-08T04:42:01.813Z,0
2017-11-08T04:43:03.493Z,0
2017-11-08T04:44:04.984Z,0
2017-11-08T04:45:06.785Z,0
2017-11-08T04:46:08.301Z,0
2017-11-08T04:47:10.082Z,0
2017-11-08T04:48:11.719Z,0
2017-11-08T04:49:13.366Z,0
2017-11-08T04:50:15.482Z,0
2017-11-08T04:51:17.349Z,0
2017-11-08T04:52:19.149Z,0
2017-11-08T04:53:20.961Z,0
2017-11-08T04:54:22.523Z,0
2017-11-08T04:55:24.256Z,0
2017-11-08T04:56:26.061Z,0
2017-11-08T04:57:28.188Z,0
2017-11-08T04:58:29.870Z,0
2017-11-08T04:59:31.447Z,0
2017-11-08T05:00:33.322Z,0
2017-11-08T05:01:35.018Z,0
2017-11-08T05:02:36.624Z,0
2017-11-08T05:03:38.713Z,0
2017-11-08T05:04:40.912Z,0
2017-11-08T05:05:42.731Z,0
2017-11-08T05:06:44.839Z,0
2017-11-08T05:07:46.416Z,0
2017-11-08T05:08:48.136Z,0
2017-11-08T05:09:49.920Z,0
2017-11-08T05:10:52.096Z,0
2017-11-08T05:11:53.474Z,0
2017-11-08T05:12:55.064Z,0
2017-11-08T05:13:56.762Z,0
2017-11-08T05:14:58.610Z,0
2017-11-08T05:16:00.329Z,0
2017-11-08T05:17:01.970Z,0
2017-11-08T05:18:04.125Z,0
2017-11-08T05:19:05.867Z,0
2017-11-08T05:20:07.797Z,0
2017-11-08T05:21:09.693Z,0
2017-11-08T05:22:11.588Z,0
2017-11-08T05:23:13.496Z,0
2017-11-08T05:24:15.168Z,0
2017-11-08T05:25:17.263Z,0
2017-11-08T05:26:19.429Z,0
2017-11-08T05:27:20.965Z,0
2017-11-08T05:28:22.814Z,0
2017-11-08T05:29:24.520Z,0
2017-11-08T05:30:26.028Z,0
2017-11-08T05:31:28.136Z,0
2017-11-08T05:32:30.038Z,0
2017-11-08T05:33:31.720Z,0
2017-11-08T05:34:33.438Z,0
2017-11-08T05:35:35.104Z,0
2017-11-08T05:36:36.906Z,0
2017-11-08T05:37:38.609Z,0
2017-11-08T05:38:40.370Z,0
2017-11-08T05:39:42.504Z,0
2017-11-08T05:40:44.203Z,0
2017-11-08T05:41:45.914Z,0
2017-11-08T05:42:47.663Z,0
2017-11-08T05:43:49.754Z,0
2017-11-08T05:44:51.789Z,0
2017-11-08T05:45:53.378Z,0
2017-11-08T05:46:55.500Z,0
2017-11-08T05:47:57.196Z,0
2017-11-08T05:48:58.934Z,0
2017-11-08T05:50:00.595Z,0
2017-11-08T05:51:02.567Z,0
2017-11-08T05:52:04.642Z,0
2017-11-08T05:53:06.360Z,0
2017-11-08T05:54:08.306Z,0
2017-11-08T05:55:10.282Z,0
2017-11-08T05:56:11.898Z,0
2017-11-08T05:57:13.558Z,0
2017-11-08T05:58:15.430Z,0
2017-11-08T05:59:17.095Z,0
2017-11-08T06:00:18.787Z,0
2017-11-08T06:01:20.719Z,0
2017-11-08T06:02:22.391Z,0
2017-11-08T06:03:23.824Z,0
2017-11-08T06:04:25.516Z,0
2017-11-08T06:05:27.032Z,0
2017-11-08T06:06:28.726Z,0
2017-11-08T06:07:30.388Z,0
2017-11-08T06:08:32.141Z,0
2017-11-08T06:09:33.589Z,4
2017-11-08T06:10:35.343Z,0
2017-11-08T06:11:37.076Z,4
2017-11-08T06:12:38.735Z,4
2017-11-08T06:13:40.393Z,4
2017-11-08T06:14:41.857Z,8
2017-11-08T06:15:43.519Z,8
2017-11-08T06:16:45.442Z,8
2017-11-08T06:17:47.081Z,12
2017-11-08T06:18:48.814Z,16
2017-11-08T06:19:50.775Z,20
2017-11-08T06:20:52.240Z,24
2017-11-08T06:21:53.961Z,24
2017-11-08T06:22:55.614Z,28
2017-11-08T06:23:57.068Z,32
2017-11-08T06:24:58.708Z,32
2017-11-08T06:26:00.605Z,36
2017-11-08T06:27:02.112Z,40
2017-11-08T06:28:04.116Z,44
2017-11-08T06:29:05.677Z,56
2017-11-08T06:30:07.147Z,64
2017-11-08T06:31:08.790Z,68
2017-11-08T06:32:10.755Z,80
2017-11-08T06:33:12.477Z,88
2017-11-08T06:34:14.129Z,104
2017-11-08T06:35:15.536Z,120
2017-11-08T06:36:17.512Z,136
2017-11-08T06:37:19.505Z,160
2017-11-08T06:38:21.130Z,180
2017-11-08T06:39:22.994Z,192
2017-11-08T06:40:24.659Z,204
2017-11-08T06:41:26.636Z,220
2017-11-08T06:42:28.326Z,236
2017-11-08T06:43:30.044Z,260
2017-11-08T06:44:31.707Z,280
2017-11-08T06:45:33.414Z,292
2017-11-08T06:46:35.396Z,292
2017-11-08T06:47:37.347Z,288
2017-11-08T06:48:39.017Z,296
2017-11-08T06:49:40.753Z,308
2017-11-08T06:50:42.449Z,340
2017-11-08T06:51:44.147Z,372
2017-11-08T06:52:45.827Z,388
2017-11-08T06:53:47.868Z,392
2017-11-08T06:54:49.580Z,392
2017-11-08T06:55:51.611Z,396
2017-11-08T06:56:53.114Z,392
2017-11-08T06:57:54.721Z,384
2017-11-08T06:58:56.725Z,364
2017-11-08T06:59:58.737Z,340
2017-11-08T07:01:00.168Z,324
2017-11-08T07:02:01.587Z,316
2017-11-08T07:03:02.990Z,312
2017-11-08T07:04:04.536Z,312
2017-11-08T07:05:06.267Z,320
2017-11-08T07:06:07.955Z,316
2017-11-08T07:07:09.418Z,320
2017-11-08T07:08:11.103Z,320
2017-11-08T07:09:12.779Z,324
2017-11-08T07:10:14.249Z,324
2017-11-08T07:11:15.708Z,328
2017-11-08T07:12:17.601Z,328
2017-11-08T07:13:19.279Z,324
2017-11-08T07:14:21.263Z,332
2017-11-08T07:15:22.923Z,336
2017-11-08T07:16:24.673Z,348
2017-11-08T07:17:26.310Z,372
2017-11-08T07:18:27.701Z,404
2017-11-08T07:19:29.750Z,428
2017-11-08T07:20:31.484Z,468
2017-11-08T07:21:33.535Z,508
2017-11-08T07:22:35.059Z,564
2017-11-08T07:23:36.500Z,620
2017-11-08T07:24:37.966Z,680
2017-11-08T07:25:39.817Z,732
2017-11-08T07:26:41.509Z,732
2017-11-08T07:27:43.219Z,684
2017-11-08T07:28:45.326Z,656
2017-11-08T07:29:47.181Z,632
2017-11-08T07:30:49.201Z,612
2017-11-08T07:31:50.874Z,616
2017-11-08T07:32:52.785Z,632
2017-11-08T07:33:54.837Z,616
2017-11-08T07:34:56.594Z,568
2017-11-08T07:35:58.245Z,532
2017-11-08T07:36:59.735Z,540
2017-11-08T07:38:01.231Z,576
2017-11-08T07:39:02.693Z,608
2017-11-08T07:40:04.133Z,616
2017-11-08T07:41:05.995Z,608
2017-11-08T07:42:08.011Z,604
2017-11-08T07:43:10.015Z,616
2017-11-08T07:44:12.008Z,636
2017-11-08T07:45:13.991Z,696
2017-11-08T07:46:15.733Z,780
2017-11-08T07:47:17.445Z,824
2017-11-08T07:48:18.859Z,828
2017-11-08T07:49:20.816Z,832
2017-11-08T07:50:22.661Z,908
2017-11-08T07:51:24.314Z,988
2017-11-08T07:52:26.203Z,1024
2017-11-08T07:53:28.156Z,1068
2017-11-08T07:54:29.835Z,1088
2017-11-08T07:55:31.503Z,1080
2017-11-08T07:56:33.530Z,1092
2017-11-08T07:57:35.454Z,1108
2017-11-08T07:58:37.108Z,1212
2017-11-08T07:59:38.774Z,1276
2017-11-08T08:00:40.500Z,1236
2017-11-08T08:01:42.380Z,1224
2017-11-08T08:02:44.416Z,1212
2017-11-08T08:03:46.086Z,1188
2017-11-08T08:04:47.528Z,1172
2017-11-08T08:05:48.965Z,1152
2017-11-08T08:06:50.536Z,1132
2017-11-08T08:07:52.516Z,1136
2017-11-08T08:08:54.169Z,1164
2017-11-08T08:09:55.889Z,1200
2017-11-08T08:10:57.342Z,1240
2017-11-08T08:11:58.804Z,1276
2017-11-08T08:13:00.529Z,1312
2017-11-08T08:14:02.213Z,1340
2017-11-08T08:15:03.931Z,1380
2017-11-08T08:16:05.389Z,1464
2017-11-08T08:17:06.825Z,1568
2017-11-08T08:18:08.849Z,1676
2017-11-08T08:19:10.366Z,1688
2017-11-08T08:20:12.275Z,1620
2017-11-08T08:21:13.987Z,1540
2017-11-08T08:22:15.488Z,1560
2017-11-08T08:23:16.937Z,1684
2017-11-08T08:24:18.853Z,1852
2017-11-08T08:25:20.867Z,1996
2017-11-08T08:26:22.804Z,2028
2017-11-08T08:27:24.265Z,1980
2017-11-08T08:28:26.378Z,1960
2017-11-08T08:29:28.030Z,1972
2017-11-08T08:30:30.039Z,1968
2017-11-08T08:31:31.753Z,1956
2017-11-08T08:32:33.198Z,1928
2017-11-08T08:33:34.688Z,1856
2017-11-08T08:34:36.129Z,1772
2017-11-08T08:35:37.565Z,1756
2017-11-08T08:36:39.035Z,1828
2017-11-08T08:37:40.477Z,1948
2017-11-08T08:38:42.173Z,2028
2017-11-08T08:39:43.798Z,2084
2017-11-08T08:40:45.286Z,2120
2017-11-08T08:41:46.942Z,2156
2017-11-08T08:42:48.841Z,2280
2017-11-08T08:43:50.537Z,2300
2017-11-08T08:44:52.252Z,2176
2017-11-08T08:45:53.725Z,1972
2017-11-08T08:46:55.399Z,1840
2017-11-08T08:47:57.107Z,1840
2017-11-08T08:48:58.513Z,1928
2017-11-08T08:50:00.033Z,2004
2017-11-08T08:51:01.473Z,2028
2017-11-08T08:52:02.898Z,2024
2017-11-08T08:53:04.721Z,1968
2017-11-08T08:54:06.552Z,1932
2017-11-08T08:55:08.500Z,1960
2017-11-08T08:56:10.427Z,1872
2017-11-08T08:57:11.860Z,1768
2017-11-08T08:58:13.321Z,1752
2017-11-08T08:59:14.968Z,1876
2017-11-08T09:00:16.849Z,1908
2017-11-08T09:01:18.537Z,1984
2017-11-08T09:02:20.258Z,2068
2017-11-08T09:03:21.689Z,2088
2017-11-08T09:04:23.112Z,1816
2017-11-08T09:05:24.847Z,1408
2017-11-08T09:06:26.529Z,1528
2017-11-08T09:07:28.244Z,1836
2017-11-08T09:08:30.203Z,2056
2017-11-08T09:09:31.955Z,2116
2017-11-08T09:10:33.931Z,2164
2017-11-08T09:11:35.407Z,2184
2017-11-08T09:12:37.329Z,2092
2017-11-08T09:13:38.756Z,1904
2017-11-08T09:14:40.235Z,1816
2017-11-08T09:15:41.639Z,1900
2017-11-08T09:16:43.317Z,1920
2017-11-08T09:17:44.752Z,1752
2017-11-08T09:18:46.423Z,1612
2017-11-08T09:19:48.097Z,1704
2017-11-08T09:20:49.922Z,1648
2017-11-08T09:21:51.626Z,1252
2017-11-08T09:22:53.134Z,1244
2017-11-08T09:23:54.815Z,1704
2017-11-08T09:24:56.510Z,2268
2017-11-08T09:25:57.971Z,2480
2017-11-08T09:26:59.474Z,2604
2017-11-08T09:28:01.241Z,2796
2017-11-08T09:29:02.931Z,3096
2017-11-08T09:30:04.362Z,3208
2017-11-08T09:31:06.066Z,3016
2017-11-08T09:32:07.500Z,2752
2017-11-08T09:33:09.228Z,2532
2017-11-08T09:34:10.989Z,2544
2017-11-08T09:35:12.422Z,2664
2017-11-08T09:36:13.869Z,2600
2017-11-08T09:37:15.349Z,2236
2017-11-08T09:38:17.083Z,1940
2017-11-08T09:39:18.980Z,1804
2017-11-08T09:40:20.777Z,1868
2017-11-08T09:41:22.509Z,2036
2017-11-08T09:42:24.241Z,2160
2017-11-08T09:43:25.933Z,2148
2017-11-08T09:44:27.726Z,1964
2017-11-08T09:45:29.426Z,1984
2017-11-08T09:46:31.076Z,2044
2017-11-08T09:47:32.520Z,1976
2017-11-08T09:48:34.250Z,1760
2017-11-08T09:49:35.949Z,1748
2017-11-08T09:50:37.672Z,1804
2017-11-08T09:51:39.426Z,1852
2017-11-08T09:52:41.100Z,1796
2017-11-08T09:53:42.829Z,1788
2017-11-08T09:54:44.566Z,1716
2017-11-08T09:55:46.330Z,1648
2017-11-08T09:56:48.226Z,1660
2017-11-08T09:57:50.093Z,1644
2017-11-08T09:58:51.714Z,1704
2017-11-08T09:59:53.388Z,1824
2017-11-08T10:00:55.110Z,1756
2017-11-08T10:01:56.863Z,1788
2017-11-08T10:02:58.278Z,1852
2017-11-08T10:03:59.730Z,1852
2017-11-08T10:05:01.183Z,1764
2017-11-08T10:06:02.646Z,1736
2017-11-08T10:07:04.357Z,1752
2017-11-08T10:08:06.101Z,1412
2017-11-08T10:09:07.824Z,1204
2017-11-08T10:10:09.490Z,1232
2017-11-08T10:11:11.197Z,1380
2017-11-08T10:12:12.853Z,1444
2017-11-08T10:13:14.274Z,1380
2017-11-08T10:14:15.727Z,1472
2017-11-08T10:15:17.239Z,1744
2017-11-08T10:16:18.748Z,1852
2017-11-08T10:17:20.206Z,1784
2017-11-08T10:18:21.654Z,1716
2017-11-08T10:19:23.075Z,1752
2017-11-08T10:20:24.603Z,1832
2017-11-08T10:21:26.130Z,1768
2017-11-08T10:22:27.754Z,1664
2017-11-08T10:23:29.204Z,1628
2017-11-08T10:24:30.617Z,1500
2017-11-08T10:25:32.093Z,1336
2017-11-08T10:26:33.856Z,1220
2017-11-08T10:27:35.589Z,1292
2017-11-08T10:28:37.312Z,1544
2017-11-08T10:29:38.993Z,1596
2017-11-08T10:30:40.738Z,1660
2017-11-08T10:31:42.372Z,1768
2017-11-08T10:32:44.063Z,1800
2017-11-08T10:33:45.763Z,1820
2017-11-08T10:34:47.185Z,1892
2017-11-08T10:35:48.656Z,2012
2017-11-08T10:36:50.398Z,2136
2017-11-08T10:37:52.112Z,2140
2017-11-08T10:38:53.886Z,1984
2017-11-08T10:39:55.607Z,1752
2017-11-08T10:40:57.059Z,1492
2017-11-08T10:41:58.732Z,1204
2017-11-08T10:43:00.318Z,1192
2017-11-08T10:44:01.768Z,1336
2017-11-08T10:45:03.211Z,1588
2017-11-08T10:46:04.943Z,1988
2017-11-08T10:47:06.369Z,2524
2017-11-08T10:48:07.846Z,2892
2017-11-08T10:49:09.552Z,3028
2017-11-08T10:50:10.975Z,3112
2017-11-08T10:51:12.564Z,3216
2017-11-08T10:52:14.319Z,3260
2017-11-08T10:53:16.073Z,3360
2017-11-08T10:54:17.780Z,3412
2017-11-08T10:55:19.181Z,3496
2017-11-08T10:56:20.910Z,3408
2017-11-08T10:57:22.635Z,3248
2017-11-08T10:58:24.366Z,3100
2017-11-08T10:59:25.800Z,3240
2017-11-08T11:00:27.354Z,3272
2017-11-08T11:01:28.791Z,3184
2017-11-08T11:02:30.503Z,3164
2017-11-08T11:03:32.289Z,3224
2017-11-08T11:04:34.013Z,3036
2017-11-08T11:05:35.698Z,2704
2017-11-08T11:06:37.193Z,2640
2017-11-08T11:07:38.627Z,3248
2017-11-08T11:08:40.134Z,3996
2017-11-08T11:09:41.843Z,4172
2017-11-08T11:10:43.537Z,4408
2017-11-08T11:11:45.230Z,4364
2017-11-08T11:12:46.676Z,4304
2017-11-08T11:13:48.290Z,4260
2017-11-08T11:14:49.988Z,4316
2017-11-08T11:15:51.687Z,4432
2017-11-08T11:16:53.349Z,4452
2017-11-08T11:17:54.826Z,4540
2017-11-08T11:18:56.270Z,4788
2017-11-08T11:19:57.713Z,4980
2017-11-08T11:20:59.159Z,5044
2017-11-08T11:22:00.927Z,5072
2017-11-08T11:23:02.612Z,5180
2017-11-08T11:24:04.290Z,5160
2017-11-08T11:25:05.715Z,5012
2017-11-08T11:26:07.145Z,4856
2017-11-08T11:27:08.548Z,4652
2017-11-08T11:28:09.969Z,4768
2017-11-08T11:29:11.488Z,5392
2017-11-08T11:30:12.896Z,5988
2017-11-08T11:31:14.614Z,6328
2017-11-08T11:32:16.168Z,6432
2017-11-08T11:33:17.867Z,6168
2017-11-08T11:34:19.590Z,5932
2017-11-08T11:35:21.020Z,5920
2017-11-08T11:36:22.437Z,5788
2017-11-08T11:37:24.166Z,5404
2017-11-08T11:38:25.862Z,5604
2017-11-08T11:39:27.685Z,5780
2017-11-08T11:40:29.348Z,5788
2017-11-08T11:41:30.799Z,5960
2017-11-08T11:42:32.397Z,6040
2017-11-08T11:43:33.820Z,5772
2017-11-08T11:44:35.561Z,5556
2017-11-08T11:45:36.960Z,5584
2017-11-08T11:46:38.769Z,5616
2017-11-08T11:47:40.525Z,5456
2017-11-08T11:48:42.208Z,5492
2017-11-08T11:49:43.867Z,5736
2017-11-08T11:50:45.291Z,6052
2017-11-08T11:51:46.998Z,6148
2017-11-08T11:52:48.659Z,6048
2017-11-08T11:53:50.370Z,5972
2017-11-08T11:54:52.091Z,5848
2017-11-08T11:55:53.988Z,5748
2017-11-08T11:56:55.748Z,5948
2017-11-08T11:57:57.425Z,6040
2017-11-08T11:58:59.131Z,6168
2017-11-08T12:00:00.914Z,6148
2017-11-08T12:01:02.377Z,5892
2017-11-08T12:02:03.780Z,5876
2017-11-08T12:03:05.218Z,5880
2017-11-08T12:04:06.797Z,5632
2017-11-08T12:05:08.296Z,5876
2017-11-08T12:06:10.060Z,6160
2017-11-08T12:07:11.493Z,6212
2017-11-08T12:08:13.002Z,5880
2017-11-08T12:09:14.453Z,5476
2017-11-08T12:10:15.892Z,5488
2017-11-08T12:11:17.345Z,5140
2017-11-08T12:12:18.980Z,5116
2017-11-08T12:13:20.444Z,5628
2017-11-08T12:14:22.086Z,6648
2017-11-08T12:15:23.919Z,7228
2017-11-08T12:16:25.715Z,7012
2017-11-08T12:17:27.459Z,6548
2017-11-08T12:18:28.870Z,6200
2017-11-08T12:19:30.317Z,6172
2017-11-08T12:20:31.849Z,5952
2017-11-08T12:21:33.278Z,5848
2017-11-08T12:22:34.954Z,5872
2017-11-08T12:23:36.364Z,5668
2017-11-08T12:24:38.061Z,5328
2017-11-08T12:25:39.818Z,4684
2017-11-08T12:26:41.224Z,4392
2017-11-08T12:27:42.992Z,4168
2017-11-08T12:28:44.684Z,3996
2017-11-08T12:29:46.519Z,3924
2017-11-08T12:30:48.195Z,4028
2017-11-08T12:31:49.993Z,3932
2017-11-08T12:32:51.765Z,3524
2017-11-08T12:33:53.436Z,3276
2017-11-08T12:34:55.166Z,3608
2017-11-08T12:35:56.970Z,3772
2017-11-08T12:36:58.737Z,3744
2017-11-08T12:38:00.148Z,3628
2017-11-08T12:39:01.593Z,3860
2017-11-08T12:40:03.072Z,3804
2017-11-08T12:41:04.551Z,3772
2017-11-08T12:42:06.128Z,3928
2017-11-08T12:43:07.847Z,4004
2017-11-08T12:44:09.597Z,3928
2017-11-08T12:45:11.258Z,3728
2017-11-08T12:46:13.055Z,3548
2017-11-08T12:47:14.754Z,3484
2017-11-08T12:48:16.558Z,3500
2017-11-08T12:49:17.990Z,3624
2017-11-08T12:50:19.421Z,3816
2017-11-08T12:51:20.898Z,3640
2017-11-08T12:52:22.611Z,3572
2017-11-08T12:53:24.301Z,4172
2017-11-08T12:54:25.744Z,3788
2017-11-08T12:55:27.275Z,4124
2017-11-08T12:56:29.015Z,4856
2017-11-08T12:57:30.633Z,5008
2017-11-08T12:58:32.389Z,4580
2017-11-08T12:59:34.150Z,4652
2017-11-08T13:00:35.719Z,6268
2017-11-08T13:01:37.410Z,6536
2017-11-08T13:02:39.231Z,6164
2017-11-08T13:03:40.853Z,6652
2017-11-08T13:04:42.727Z,6888
2017-11-08T13:05:44.378Z,6572
2017-11-08T13:06:45.801Z,6112
2017-11-08T13:07:47.258Z,6096
2017-11-08T13:08:48.709Z,6412
2017-11-08T13:09:50.240Z,6460
2017-11-08T13:10:51.753Z,6472
2017-11-08T13:11:53.199Z,6536
2017-11-08T13:12:54.671Z,6296
2017-11-08T13:13:56.380Z,6264
2017-11-08T13:14:58.111Z,6208
2017-11-08T13:15:59.560Z,5844
2017-11-08T13:17:01.403Z,5296
2017-11-08T13:18:02.829Z,4680
2017-11-08T13:19:04.600Z,4804
2017-11-08T13:20:06.243Z,5272
2017-11-08T13:21:08.002Z,5428
2017-11-08T13:22:09.468Z,4992
2017-11-08T13:23:11.214Z,4764
2017-11-08T13:24:12.974Z,4752
2017-11-08T13:25:14.644Z,4940
2017-11-08T13:26:16.089Z,5200
2017-11-08T13:27:17.650Z,5028
2017-11-08T13:28:19.154Z,4236
2017-11-08T13:29:20.562Z,3292
2017-11-08T13:30:22.154Z,2832
2017-11-08T13:31:23.821Z,2572
2017-11-08T13:32:25.493Z,2504
2017-11-08T13:33:27.203Z,2316
2017-11-08T13:34:28.829Z,1972
2017-11-08T13:35:30.548Z,1944
2017-11-08T13:36:32.006Z,1928
2017-11-08T13:37:33.426Z,1928
2017-11-08T13:38:35.107Z,2088
2017-11-08T13:39:36.795Z,2236
2017-11-08T13:40:38.216Z,2300
2017-11-08T13:41:39.702Z,2292
2017-11-08T13:42:41.447Z,2224
2017-11-08T13:43:43.112Z,2092
2017-11-08T13:44:44.637Z,1948
2017-11-08T13:45:46.109Z,1700
2017-11-08T13:46:47.628Z,1560
2017-11-08T13:47:49.107Z,1512
2017-11-08T13:48:50.543Z,1604
2017-11-08T13:49:52.035Z,1680
2017-11-08T13:50:53.658Z,1812
2017-11-08T13:51:55.488Z,1868
2017-11-08T13:52:56.958Z,1756
2017-11-08T13:53:58.458Z,1556
2017-11-08T13:54:59.904Z,1584
2017-11-08T13:56:01.585Z,1628
2017-11-08T13:57:03.253Z,1500
2017-11-08T13:58:04.960Z,1300
2017-11-08T13:59:06.450Z,1136
2017-11-08T14:00:07.959Z,1296
2017-11-08T14:01:09.689Z,1288
2017-11-08T14:02:11.411Z,1328
2017-11-08T14:03:12.843Z,1480
2017-11-08T14:04:14.544Z,1516
2017-11-08T14:05:16.343Z,1400
2017-11-08T14:06:18.013Z,1308
2017-11-08T14:07:19.761Z,1228
2017-11-08T14:08:21.183Z,1072
2017-11-08T14:09:22.849Z,1152
2017-11-08T14:10:24.459Z,1492
2017-11-08T14:11:25.887Z,1780
2017-11-08T14:12:27.293Z,1712
2017-11-08T14:13:28.899Z,1292
2017-11-08T14:14:30.735Z,956
2017-11-08T14:15:32.439Z,1048
2017-11-08T14:16:33.920Z,1028
2017-11-08T14:17:35.494Z,972
2017-11-08T14:18:37.579Z,980
2017-11-08T14:19:39.174Z,1044
2017-11-08T14:20:40.635Z,1092
2017-11-08T14:21:42.076Z,1144
2017-11-08T14:22:43.517Z,1096